Time,TemperatureF,DewpointF,PressureIn,WindDirection,WindDirectionDegrees,WindSpeedMPH,WindSpeedGustMPH,Humidity,HourlyPrecipIn,Conditions,Clouds,dailyrainin,SoftwareType,DateUTC
2013-01-02 00:05:00,17.6,14.7,30.08,SW,215,3.0,4.0,88,0.00,,OVC012,0.00,VWS V14.01,2013-01-02 06:05:00,
2013-01-02 00:11:00,17.4,14.5,30.08,WSW,238,5.0,5.0,88,0.00,,OVC012,0.00,VWS V14.01,2013-01-02 06:11:00,
2013-01-02 00:17:00,17.3,14.4,30.08,SW,215,2.0,5.0,88,0.00,,OVC012,0.00,VWS V14.01,2013-01-02 06:17:00,
2013-01-02 00:23:00,17.2,14.3,30.08,SW,218,3.0,9.0,88,0.00,,OVC012,0.00,VWS V14.01,2013-01-02 06:23:00,
2013-01-02 00:29:00,17.0,14.3,30.07,SW,221,3.0,5.0,89,0.00,,OVC012,0.00,VWS V14.01,2013-01-02 06:29:00,
2013-01-02 00:34:00,16.9,14.0,30.07,South,176,3.0,5.0,88,0.00,,OVC012,0.00,VWS V14.01,2013-01-02 06:34:00,
2013-01-02 00:39:00,16.7,13.8,30.07,WSW,245,1.0,7.0,88,0.00,,OVC012,0.00,VWS V14.01,2013-01-02 06:39:00,
2013-01-02 00:45:00,16.6,13.9,30.07,WNW,287,2.0,5.0,89,0.00,,OVC012,0.00,VWS V14.01,2013-01-02 06:45:00,
2013-01-02 00:51:00,16.4,13.7,30.07,WSW,245,1.0,4.0,89,0.00,,OVC012,0.00,VWS V14.01,2013-01-02 06:51:00,
2013-01-02 00:57:00,16.2,13.3,30.07,SW,236,3.0,6.0,88,0.00,,OVC012,0.00,VWS V14.01,2013-01-02 06:57:00,
2013-01-02 01:03:00,16.1,13.2,30.06,SW,228,4.0,6.0,88,0.00,,OVC012,0.00,VWS V14.01,2013-01-02 07:03:00,
2013-01-02 01:09:00,15.9,13.2,30.06,WSW,240,2.0,4.0,89,0.00,,OVC012,0.00,VWS V14.01,2013-01-02 07:09:00,
2013-01-02 01:14:00,15.9,13.2,30.06,WSW,256,4.0,7.0,89,0.00,,OVC012,0.00,VWS V14.01,2013-01-02 07:14:00,
2013-01-02 01:19:00,15.8,13.1,30.05,SW,235,1.0,6.0,89,0.00,,OVC012,0.00,VWS V14.01,2013-01-02 07:19:00,
2013-01-02 01:24:00,15.7,13.0,30.05,SSW,203,4.0,4.0,89,0.00,,OVC012,0.00,VWS V14.01,2013-01-02 07:24:00,
2013-01-02 01:29:00,15.7,13.0,30.05,SSW,211,4.0,6.0,89,0.00,,OVC012,0.00,VWS V14.01,2013-01-02 07:29:00,
2013-01-02 01:34:00,15.6,12.9,30.05,SSW,208,1.0,4.0,89,0.00,,OVC010,0.00,VWS V14.01,2013-01-02 07:34:00,
2013-01-02 01:39:00,15.6,12.9,30.05,SSW,211,2.0,4.0,89,0.00,,OVC010,0.00,VWS V14.01,2013-01-02 07:39:00,
2013-01-02 01:44:00,15.6,12.9,30.05,South,181,2.0,4.0,89,0.00,,OVC010,0.00,VWS V14.01,2013-01-02 07:44:00,
2013-01-02 01:49:00,15.5,12.8,30.05,SSW,207,4.0,4.0,89,0.00,,OVC010,0.00,VWS V14.01,2013-01-02 07:49:00,
2013-01-02 01:54:00,15.4,12.7,30.04,SSW,203,2.0,6.0,89,0.00,,OVC010,0.00,VWS V14.01,2013-01-02 07:54:00,
2013-01-02 01:59:00,15.4,13.0,30.05,SSW,193,2.0,5.0,90,0.00,,OVC010,0.00,VWS V14.01,2013-01-02 07:59:00,
2013-01-02 02:04:00,15.3,12.9,30.05,SW,215,3.0,5.0,90,0.00,,,0.00,VWS V14.01,2013-01-02 08:04:00,
2013-01-02 02:09:00,15.3,12.9,30.05,SW,218,4.0,5.0,90,0.00,,,0.00,VWS V14.01,2013-01-02 08:09:00,
2013-01-02 02:14:00,15.2,12.8,30.05,SSW,212,3.0,5.0,90,0.00,,,0.00,VWS V14.01,2013-01-02 08:14:00,
2013-01-02 02:19:00,15.2,12.8,30.05,SSW,211,2.0,4.0,90,0.00,,OVC010,0.00,VWS V14.01,2013-01-02 08:19:00,
2013-01-02 02:24:00,15.1,12.7,30.05,SSW,198,4.0,5.0,90,0.00,,OVC010,0.00,VWS V14.01,2013-01-02 08:24:00,
2013-01-02 02:30:00,15.0,12.6,30.06,WSW,255,2.0,4.0,90,0.00,,OVC010,0.00,VWS V14.01,2013-01-02 08:30:00,
2013-01-02 02:36:00,14.8,12.4,30.06,SSW,209,2.0,6.0,90,0.00,,,0.00,VWS V14.01,2013-01-02 08:36:00,
2013-01-02 02:42:00,14.7,12.3,30.06,SW,217,5.0,5.0,90,0.00,,,0.00,VWS V14.01,2013-01-02 08:42:00,
2013-01-02 02:48:00,14.7,12.3,30.06,South,188,3.0,5.0,90,0.00,,,0.00,VWS V14.01,2013-01-02 08:48:00,
2013-01-02 02:54:00,14.7,12.6,30.06,South,181,4.0,5.0,91,0.00,,,0.00,VWS V14.01,2013-01-02 08:54:00,
2013-01-02 02:59:00,14.6,12.5,30.06,SSW,201,4.0,4.0,91,0.00,,,0.00,VWS V14.01,2013-01-02 08:59:00,
2013-01-02 03:04:00,14.6,12.5,30.06,SSE,160,2.0,4.0,91,0.00,,,0.00,VWS V14.01,2013-01-02 09:04:00,
2013-01-02 03:09:00,14.7,12.6,30.05,SSW,212,3.0,7.0,91,0.00,,,0.00,VWS V14.01,2013-01-02 09:09:00,
2013-01-02 03:14:00,14.7,12.8,30.05,SSW,196,3.0,4.0,92,0.00,,,0.00,VWS V14.01,2013-01-02 09:14:00,
2013-01-02 03:19:00,14.7,12.8,30.05,South,187,3.0,7.0,92,0.00,,,0.00,VWS V14.01,2013-01-02 09:19:00,
2013-01-02 03:24:00,14.8,12.9,30.05,SW,221,2.0,4.0,92,0.00,,,0.00,VWS V14.01,2013-01-02 09:24:00,
2013-01-02 03:29:00,14.8,12.9,30.04,WSW,253,5.0,5.0,92,0.00,,,0.00,VWS V14.01,2013-01-02 09:29:00,
2013-01-02 03:34:00,14.7,12.8,30.04,SSW,203,3.0,4.0,92,0.00,,OVC008,0.00,VWS V14.01,2013-01-02 09:34:00,
2013-01-02 03:40:00,14.7,12.8,30.04,SW,214,3.0,4.0,92,0.00,,OVC008,0.00,VWS V14.01,2013-01-02 09:40:00,
2013-01-02 03:46:00,14.6,12.7,30.03,SSE,162,0.0,2.0,92,0.00,,OVC008,0.00,VWS V14.01,2013-01-02 09:46:00,
2013-01-02 03:52:00,14.3,12.2,30.03,South,172,1.0,4.0,91,0.00,,OVC008,0.00,VWS V14.01,2013-01-02 09:52:00,
2013-01-02 03:58:00,14.0,11.9,30.03,SW,229,3.0,4.0,91,0.00,,OVC008,0.00,VWS V14.01,2013-01-02 09:58:00,
2013-01-02 04:04:00,13.9,11.8,30.03,South,191,3.0,3.0,91,0.00,,OVC006,0.00,VWS V14.01,2013-01-02 10:04:00,
2013-01-02 04:09:00,13.8,11.9,30.02,SSW,194,3.0,6.0,92,0.00,,OVC006,0.00,VWS V14.01,2013-01-02 10:09:00,
2013-01-02 04:14:00,13.7,11.8,30.02,SSW,208,4.0,7.0,92,0.00,,OVC006,0.00,VWS V14.01,2013-01-02 10:14:00,
2013-01-02 04:19:00,13.7,11.8,30.02,SSW,211,3.0,4.0,92,0.00,,OVC008,0.00,VWS V14.01,2013-01-02 10:19:00,
2013-01-02 04:24:00,13.7,11.8,30.02,SSE,152,2.0,5.0,92,0.00,,OVC008,0.00,VWS V14.01,2013-01-02 10:24:00,
2013-01-02 04:29:00,13.8,11.9,30.02,SSE,163,3.0,5.0,92,0.00,,OVC008,0.00,VWS V14.01,2013-01-02 10:29:00,
2013-01-02 04:34:00,13.8,11.9,30.02,SSE,153,2.0,5.0,92,0.00,,,0.00,VWS V14.01,2013-01-02 10:34:00,
2013-01-02 04:39:00,13.8,11.9,30.02,SW,228,2.0,4.0,92,0.00,,,0.00,VWS V14.01,2013-01-02 10:39:00,
2013-01-02 04:44:00,13.9,12.0,30.02,SW,218,4.0,4.0,92,0.00,,,0.00,VWS V14.01,2013-01-02 10:44:00,
2013-01-02 04:49:00,14.0,12.1,30.02,South,191,2.0,4.0,92,0.00,,,0.00,VWS V14.01,2013-01-02 10:49:00,
2013-01-02 04:54:00,14.0,12.1,30.01,SSW,195,2.0,5.0,92,0.00,,,0.00,VWS V14.01,2013-01-02 10:54:00,
2013-01-02 05:00:00,14.0,12.1,30.01,SSW,208,2.0,4.0,92,0.00,,,0.00,VWS V14.01,2013-01-02 11:00:00,
2013-01-02 05:06:00,14.0,12.1,30.01,South,181,3.0,3.0,92,0.00,,,0.00,VWS V14.01,2013-01-02 11:06:00,
2013-01-02 05:12:00,14.0,12.1,30.01,SW,224,3.0,5.0,92,0.00,,,0.00,VWS V14.01,2013-01-02 11:12:00,
2013-01-02 05:18:00,14.1,12.2,30.00,SSW,211,3.0,3.0,92,0.00,,,0.00,VWS V14.01,2013-01-02 11:18:00,
2013-01-02 05:24:00,14.1,12.2,30.00,SSE,166,4.0,5.0,92,0.00,,,0.00,VWS V14.01,2013-01-02 11:24:00,
2013-01-02 05:29:00,14.0,12.1,30.00,SSW,197,4.0,6.0,92,0.00,,,0.00,VWS V14.01,2013-01-02 11:29:00,
2013-01-02 05:34:00,14.0,12.1,30.00,SW,218,2.0,5.0,92,0.00,,,0.00,VWS V14.01,2013-01-02 11:34:00,
2013-01-02 05:39:00,13.8,11.9,30.00,SW,218,4.0,5.0,92,0.00,,,0.00,VWS V14.01,2013-01-02 11:39:00,
2013-01-02 05:44:00,13.7,11.8,30.00,SW,235,3.0,4.0,92,0.00,,,0.00,VWS V14.01,2013-01-02 11:44:00,
2013-01-02 05:49:00,13.6,11.7,30.00,SSW,200,1.0,6.0,92,0.00,,,0.00,VWS V14.01,2013-01-02 11:49:00,
2013-01-02 05:54:00,13.5,11.6,30.00,WSW,248,4.0,4.0,92,0.00,,,0.00,VWS V14.01,2013-01-02 11:54:00,
2013-01-02 05:59:00,13.4,11.5,30.00,SW,229,3.0,4.0,92,0.00,,,0.00,VWS V14.01,2013-01-02 11:59:00,
2013-01-02 06:04:00,13.3,11.4,30.00,SSW,207,3.0,5.0,92,0.00,,,0.00,VWS V14.01,2013-01-02 12:04:00,
2013-01-02 06:09:00,13.3,11.4,30.00,SW,218,2.0,4.0,92,0.00,,,0.00,VWS V14.01,2013-01-02 12:09:00,
2013-01-02 06:15:00,13.3,11.4,30.00,SSW,195,3.0,3.0,92,0.00,,,0.00,VWS V14.01,2013-01-02 12:15:00,
2013-01-02 06:21:00,13.2,11.3,30.00,SSW,197,3.0,6.0,92,0.00,,,0.00,VWS V14.01,2013-01-02 12:21:00,
2013-01-02 06:27:00,13.2,11.3,30.00,WSW,240,2.0,4.0,92,0.00,,,0.00,VWS V14.01,2013-01-02 12:27:00,
2013-01-02 06:33:00,13.1,11.2,29.99,WSW,243,3.0,3.0,92,0.00,,,0.00,VWS V14.01,2013-01-02 12:33:00,
2013-01-02 06:38:00,13.1,11.2,29.99,WSW,250,4.0,4.0,92,0.00,,,0.00,VWS V14.01,2013-01-02 12:38:00,
2013-01-02 06:44:00,13.1,11.2,30.00,SW,233,1.0,4.0,92,0.00,,,0.00,VWS V14.01,2013-01-02 12:44:00,
2013-01-02 06:49:00,13.1,11.2,30.00,WSW,249,3.0,4.0,92,0.00,,,0.00,VWS V14.01,2013-01-02 12:49:00,
2013-01-02 06:55:00,12.9,11.0,30.00,WSW,249,1.0,4.0,92,0.00,,,0.00,VWS V14.01,2013-01-02 12:55:00,
2013-01-02 07:01:00,12.9,11.0,30.00,WSW,240,2.0,5.0,92,0.00,,,0.00,VWS V14.01,2013-01-02 13:01:00,
2013-01-02 07:07:00,12.9,11.0,30.00,SW,218,3.0,4.0,92,0.00,,,0.00,VWS V14.01,2013-01-02 13:07:00,
2013-01-02 07:13:00,12.9,11.0,30.00,SW,218,1.0,4.0,92,0.00,,,0.00,VWS V14.01,2013-01-02 13:13:00,
2013-01-02 07:18:00,12.9,11.0,30.01,West,268,4.0,4.0,92,0.00,,,0.00,VWS V14.01,2013-01-02 13:18:00,
2013-01-02 07:23:00,12.9,11.0,30.00,WSW,248,2.0,4.0,92,0.00,,,0.00,VWS V14.01,2013-01-02 13:23:00,
2013-01-02 07:29:00,12.9,11.0,30.00,SSW,212,2.0,5.0,92,0.00,,,0.00,VWS V14.01,2013-01-02 13:29:00,
2013-01-02 07:34:00,12.9,11.0,30.00,WSW,238,3.0,3.0,92,0.00,,,0.00,VWS V14.01,2013-01-02 13:34:00,
2013-01-02 07:39:00,12.9,11.0,30.00,SSW,195,3.0,5.0,92,0.00,,,0.00,VWS V14.01,2013-01-02 13:39:00,
2013-01-02 07:44:00,12.9,11.0,30.00,WSW,238,3.0,5.0,92,0.00,,,0.00,VWS V14.01,2013-01-02 13:44:00,
2013-01-02 07:49:00,12.9,11.0,30.01,SW,235,3.0,7.0,92,0.00,,,0.00,VWS V14.01,2013-01-02 13:49:00,
2013-01-02 07:54:00,12.9,11.0,30.00,WSW,248,4.0,4.0,92,0.00,,,0.00,VWS V14.01,2013-01-02 13:54:00,
2013-01-02 07:59:00,12.9,11.0,30.00,SSW,198,3.0,5.0,92,0.00,,,0.00,VWS V14.01,2013-01-02 13:59:00,
2013-01-02 08:04:00,12.9,11.0,30.00,SE,142,2.0,4.0,92,0.00,,,0.00,VWS V14.01,2013-01-02 14:04:00,
2013-01-02 08:09:00,12.9,11.0,30.00,SW,225,1.0,3.0,92,0.00,,,0.00,VWS V14.01,2013-01-02 14:09:00,
2013-01-02 08:15:00,13.0,11.1,30.00,SSE,150,1.0,3.0,92,0.00,,,0.00,VWS V14.01,2013-01-02 14:15:00,
2013-01-02 08:21:00,12.9,11.0,30.00,SSE,158,1.0,2.0,92,0.00,,,0.00,VWS V14.01,2013-01-02 14:21:00,
2013-01-02 08:27:00,13.0,11.1,30.00,SSW,193,3.0,4.0,92,0.00,,,0.00,VWS V14.01,2013-01-02 14:27:00,
2013-01-02 08:33:00,12.9,11.0,30.00,SW,219,2.0,5.0,92,0.00,,,0.00,VWS V14.01,2013-01-02 14:33:00,
2013-01-02 08:39:00,13.0,11.1,30.00,South,170,2.0,5.0,92,0.00,,,0.00,VWS V14.01,2013-01-02 14:39:00,
2013-01-02 08:44:00,13.0,11.1,30.00,SSE,158,3.0,3.0,92,0.00,,,0.00,VWS V14.01,2013-01-02 14:44:00,
2013-01-02 08:49:00,13.0,11.1,29.99,SW,228,1.0,3.0,92,0.00,,,0.00,VWS V14.01,2013-01-02 14:49:00,
2013-01-02 08:55:00,13.1,11.2,29.99,SE,136,2.0,2.0,92,0.00,,,0.00,VWS V14.01,2013-01-02 14:55:00,
2013-01-02 09:01:00,13.3,11.4,29.99,SE,124,2.0,2.0,92,0.00,,OVC004,0.00,VWS V14.01,2013-01-02 15:01:00,
2013-01-02 09:07:00,13.5,11.6,30.00,South,184,2.0,2.0,92,0.00,,OVC004,0.00,VWS V14.01,2013-01-02 15:07:00,
2013-01-02 09:13:00,13.6,11.7,30.00,ESE,110,0.0,3.0,92,0.00,,OVC004,0.00,VWS V14.01,2013-01-02 15:13:00,
2013-01-02 09:19:00,13.8,11.9,30.00,SW,229,3.0,4.0,92,0.00,,,0.00,VWS V14.01,2013-01-02 15:19:00,
2013-01-02 09:24:00,13.8,11.7,30.00,SE,145,2.0,4.0,91,0.00,,,0.00,VWS V14.01,2013-01-02 15:24:00,
2013-01-02 09:29:00,13.9,11.8,30.00,SSW,206,2.0,5.0,91,0.00,,,0.00,VWS V14.01,2013-01-02 15:29:00,
2013-01-02 09:35:00,14.0,11.9,30.00,SSE,148,3.0,3.0,91,0.00,,OVC004,0.00,VWS V14.01,2013-01-02 15:35:00,
2013-01-02 09:41:00,14.1,12.2,30.00,SE,145,3.0,3.0,92,0.00,,OVC004,0.00,VWS V14.01,2013-01-02 15:41:00,
2013-01-02 09:47:00,14.2,12.1,30.00,SW,233,0.0,3.0,91,0.00,,OVC004,0.00,VWS V14.01,2013-01-02 15:47:00,
2013-01-02 09:53:00,14.4,12.3,30.00,WSW,250,1.0,5.0,91,0.00,,OVC004,0.00,VWS V14.01,2013-01-02 15:53:00,
2013-01-02 09:59:00,14.4,12.3,30.00,SW,224,2.0,5.0,91,0.00,,OVC004,0.00,VWS V14.01,2013-01-02 15:59:00,
2013-01-02 10:06:00,14.6,12.5,30.00,SW,228,3.0,3.0,91,0.00,,,0.00,VWS V14.01,2013-01-02 16:06:00,
2013-01-02 10:12:00,14.7,12.6,30.01,SSW,212,2.0,3.0,91,0.00,,,0.00,VWS V14.01,2013-01-02 16:12:00,
2013-01-02 10:18:00,14.8,12.6,30.01,South,174,3.0,3.0,91,0.00,,,0.00,VWS V14.01,2013-01-02 16:18:00,
2013-01-02 10:23:00,14.8,12.6,30.01,South,172,3.0,3.0,91,0.00,,,0.00,VWS V14.01,2013-01-02 16:23:00,
2013-01-02 10:29:00,14.9,12.8,30.00,WSW,246,1.0,4.0,91,0.00,,,0.00,VWS V14.01,2013-01-02 16:29:00,
2013-01-02 10:34:00,15.0,12.9,30.00,East,95,0.0,3.0,91,0.00,,,0.00,VWS V14.01,2013-01-02 16:34:00,
2013-01-02 10:40:00,15.2,13.1,30.00,SE,125,1.0,3.0,91,0.00,,,0.00,VWS V14.01,2013-01-02 16:40:00,
2013-01-02 10:46:00,15.2,13.1,30.00,SSE,155,1.0,3.0,91,0.00,,,0.00,VWS V14.01,2013-01-02 16:46:00,
2013-01-02 10:52:00,15.2,12.8,30.00,West,278,3.0,3.0,90,0.00,,,0.00,VWS V14.01,2013-01-02 16:52:00,
2013-01-02 10:58:00,15.1,12.7,29.99,SSW,210,2.0,2.0,90,0.00,,,0.00,VWS V14.01,2013-01-02 16:58:00,
2013-01-02 11:04:00,15.3,12.9,29.99,South,191,1.0,4.0,90,0.00,,,0.00,VWS V14.01,2013-01-02 17:04:00,
2013-01-02 11:09:00,15.5,13.1,29.99,SW,225,1.0,2.0,90,0.00,,,0.00,VWS V14.01,2013-01-02 17:09:00,
2013-01-02 11:14:00,15.7,13.3,29.99,SW,224,1.0,2.0,90,0.00,,,0.00,VWS V14.01,2013-01-02 17:14:00,
2013-01-02 11:20:00,15.9,13.5,29.99,SSE,160,2.0,2.0,90,0.00,,,0.00,VWS V14.01,2013-01-02 17:20:00,
2013-01-02 11:26:00,15.8,13.4,29.99,ESE,105,0.0,4.0,90,0.00,,,0.00,VWS V14.01,2013-01-02 17:26:00,
2013-01-02 11:32:00,16.0,13.6,29.98,SW,215,1.0,3.0,90,0.00,,,0.00,VWS V14.01,2013-01-02 17:32:00,
2013-01-02 11:38:00,16.2,13.8,29.98,SSW,195,2.0,2.0,90,0.00,,,0.00,VWS V14.01,2013-01-02 17:38:00,
2013-01-02 11:43:00,16.3,13.6,29.97,SSE,152,1.0,4.0,89,0.00,,,0.00,VWS V14.01,2013-01-02 17:43:00,
2013-01-02 11:48:00,16.4,14.0,29.97,SE,125,3.0,4.0,90,0.00,,,0.00,VWS V14.01,2013-01-02 17:48:00,
2013-01-02 11:54:00,16.0,13.3,29.96,SSE,158,2.0,5.0,89,0.00,,,0.00,VWS V14.01,2013-01-02 17:54:00,
2013-01-02 11:59:00,15.9,13.5,29.96,SSW,212,1.0,5.0,90,0.00,,,0.00,VWS V14.01,2013-01-02 17:59:00,
2013-01-02 12:04:00,16.1,13.7,29.97,WSW,242,3.0,3.0,90,0.00,,,0.00,VWS V14.01,2013-01-02 18:04:00,
2013-01-02 12:10:00,16.4,14.0,29.96,ESE,108,2.0,2.0,90,0.00,,,0.00,VWS V14.01,2013-01-02 18:10:00,
2013-01-02 12:16:00,16.4,14.0,29.97,SW,226,3.0,3.0,90,0.00,,,0.00,VWS V14.01,2013-01-02 18:16:00,
2013-01-02 12:22:00,16.6,14.2,29.97,South,182,3.0,3.0,90,0.00,,,0.00,VWS V14.01,2013-01-02 18:22:00,
2013-01-02 12:28:00,16.9,14.2,29.97,WSW,241,3.0,3.0,89,0.00,,,0.00,VWS V14.01,2013-01-02 18:28:00,
2013-01-02 12:33:00,16.9,14.2,29.97,SE,141,1.0,2.0,89,0.00,,,0.00,VWS V14.01,2013-01-02 18:33:00,
2013-01-02 12:38:00,17.0,14.3,29.96,SW,226,3.0,4.0,89,0.00,,,0.00,VWS V14.01,2013-01-02 18:38:00,
2013-01-02 12:43:00,16.9,14.0,29.96,South,173,1.0,3.0,88,0.00,,,0.00,VWS V14.01,2013-01-02 18:43:00,
2013-01-02 12:48:00,17.0,14.3,29.96,SSW,203,1.0,4.0,89,0.00,,,0.00,VWS V14.01,2013-01-02 18:48:00,
2013-01-02 12:53:00,17.0,14.1,29.96,SSW,197,0.0,3.0,88,0.00,,,0.00,VWS V14.01,2013-01-02 18:53:00,
2013-01-02 12:58:00,17.1,14.2,29.96,WSW,249,2.0,3.0,88,0.00,,,0.00,VWS V14.01,2013-01-02 18:58:00,
2013-01-02 13:04:00,17.0,14.1,29.96,SSW,193,4.0,4.0,88,0.00,,,0.00,VWS V14.01,2013-01-02 19:04:00,
2013-01-02 13:10:00,17.0,14.1,29.96,SSW,195,2.0,2.0,88,0.00,,,0.00,VWS V14.01,2013-01-02 19:10:00,
2013-01-02 13:16:00,17.1,14.2,29.96,WSW,253,1.0,2.0,88,0.00,,,0.00,VWS V14.01,2013-01-02 19:16:00,
2013-01-02 13:22:00,16.9,14.0,29.96,SW,229,4.0,4.0,88,0.00,,,0.00,VWS V14.01,2013-01-02 19:22:00,
2013-01-02 13:29:00,16.7,13.8,29.96,SW,226,3.0,4.0,88,0.00,,,0.00,VWS V14.01,2013-01-02 19:29:00,
2013-01-02 13:35:00,16.7,13.8,29.96,West,276,0.0,2.0,88,0.00,,,0.00,VWS V14.01,2013-01-02 19:35:00,
2013-01-02 13:41:00,16.7,13.8,29.96,West,277,1.0,3.0,88,0.00,,,0.00,VWS V14.01,2013-01-02 19:41:00,
2013-01-02 13:47:00,16.7,13.8,29.96,West,263,0.0,2.0,88,0.00,,,0.00,VWS V14.01,2013-01-02 19:47:00,
2013-01-02 13:53:00,16.9,14.2,29.96,SSW,195,0.0,2.0,89,0.00,,,0.00,VWS V14.01,2013-01-02 19:53:00,
2013-01-02 13:58:00,17.2,14.5,29.97,South,174,1.0,3.0,89,0.00,,,0.00,VWS V14.01,2013-01-02 19:58:00,
2013-01-02 14:03:00,17.3,14.6,29.96,SSE,155,0.0,2.0,89,0.00,,,0.00,VWS V14.01,2013-01-02 20:03:00,
2013-01-02 14:08:00,17.5,14.8,29.96,SSW,208,1.0,3.0,89,0.00,,,0.00,VWS V14.01,2013-01-02 20:08:00,
2013-01-02 14:14:00,17.8,15.1,29.96,SSW,205,1.0,3.0,89,0.00,,,0.00,VWS V14.01,2013-01-02 20:14:00,
2013-01-02 14:19:00,18.1,15.4,29.96,SW,235,1.0,1.0,89,0.00,,,0.00,VWS V14.01,2013-01-02 20:19:00,
2013-01-02 14:25:00,18.5,15.8,29.97,SW,228,2.0,2.0,89,0.00,,,0.00,VWS V14.01,2013-01-02 20:25:00,
2013-01-02 14:31:00,18.4,15.2,29.97,SSW,197,3.0,3.0,87,0.00,,,0.00,VWS V14.01,2013-01-02 20:31:00,
2013-01-02 14:37:00,18.2,15.0,29.97,SSW,204,1.0,4.0,87,0.00,,,0.00,VWS V14.01,2013-01-02 20:37:00,
2013-01-02 14:43:00,17.9,14.7,29.97,SW,229,2.0,4.0,87,0.00,,,0.00,VWS V14.01,2013-01-02 20:43:00,
2013-01-02 14:48:00,17.7,14.5,29.98,SSW,212,2.0,2.0,87,0.00,,,0.00,VWS V14.01,2013-01-02 20:48:00,
2013-01-02 14:53:00,17.6,14.4,29.98,SSW,203,1.0,3.0,87,0.00,,,0.00,VWS V14.01,2013-01-02 20:53:00,
2013-01-02 14:59:00,17.5,14.6,29.98,WSW,243,2.0,3.0,88,0.00,,,0.00,VWS V14.01,2013-01-02 20:59:00,
2013-01-02 15:04:00,17.4,14.5,29.98,SSW,203,1.0,3.0,88,0.00,,,0.00,VWS V14.01,2013-01-02 21:04:00,
2013-01-02 15:09:00,17.3,14.4,29.98,SSW,204,1.0,1.0,88,0.00,,,0.00,VWS V14.01,2013-01-02 21:09:00,
2013-01-02 15:15:00,17.2,14.3,29.98,SW,225,1.0,1.0,88,0.00,,,0.00,VWS V14.01,2013-01-02 21:15:00,
2013-01-02 15:21:00,17.3,14.6,29.98,SW,233,1.0,2.0,89,0.00,,,0.00,VWS V14.01,2013-01-02 21:21:00,
2013-01-02 15:27:00,17.4,14.7,29.98,SW,217,0.0,1.0,89,0.00,,,0.00,VWS V14.01,2013-01-02 21:27:00,
2013-01-02 15:33:00,17.7,15.3,29.98,SW,217,0.0,0.0,90,0.00,,,0.00,VWS V14.01,2013-01-02 21:33:00,
2013-01-02 15:38:00,17.9,15.2,29.98,SW,217,0.0,1.0,89,0.00,,,0.00,VWS V14.01,2013-01-02 21:38:00,
2013-01-02 15:44:00,18.0,15.6,29.98,SW,215,0.0,0.0,90,0.00,,,0.00,VWS V14.01,2013-01-02 21:44:00,
2013-01-02 15:49:00,17.8,15.1,29.98,SE,130,0.0,2.0,89,0.00,,,0.00,VWS V14.01,2013-01-02 21:49:00,
2013-01-02 15:54:00,17.8,15.1,29.99,SW,224,2.0,2.0,89,0.00,,,0.00,VWS V14.01,2013-01-02 21:54:00,
2013-01-02 16:00:00,17.7,15.0,29.99,SSW,208,0.0,1.0,89,0.00,,,0.00,VWS V14.01,2013-01-02 22:00:00,
2013-01-02 16:06:00,17.6,14.9,29.99,SW,229,1.0,1.0,89,0.00,,,0.00,VWS V14.01,2013-01-02 22:06:00,
2013-01-02 16:12:00,17.5,14.8,29.99,SW,220,1.0,1.0,89,0.00,,,0.00,VWS V14.01,2013-01-02 22:12:00,
2013-01-02 16:18:00,17.5,14.8,29.99,SSW,208,0.0,0.0,89,0.00,,,0.00,VWS V14.01,2013-01-02 22:18:00,
2013-01-02 16:24:00,17.4,14.7,30.00,WSW,258,1.0,1.0,89,0.00,,,0.00,VWS V14.01,2013-01-02 22:24:00,
2013-01-02 16:30:00,17.2,14.8,29.99,West,276,1.0,1.0,90,0.00,,,0.00,VWS V14.01,2013-01-02 22:30:00,
2013-01-02 16:36:00,17.1,14.7,30.00,WSW,246,0.0,1.0,90,0.00,,,0.00,VWS V14.01,2013-01-02 22:36:00,
2013-01-02 16:42:00,17.0,14.6,30.00,SW,233,0.0,1.0,90,0.00,,,0.00,VWS V14.01,2013-01-02 22:42:00,
2013-01-02 16:48:00,16.8,14.4,30.00,West,259,0.0,1.0,90,0.00,,,0.00,VWS V14.01,2013-01-02 22:48:00,
2013-01-02 16:54:00,16.7,14.3,30.01,WSW,253,0.0,1.0,90,0.00,,,0.00,VWS V14.01,2013-01-02 22:54:00,
2013-01-02 16:59:00,16.7,14.3,30.01,SW,215,0.0,0.0,90,0.00,,,0.00,VWS V14.01,2013-01-02 22:59:00,
2013-01-02 17:04:00,16.6,14.4,30.01,SSW,210,0.0,0.0,91,0.00,,,0.00,VWS V14.01,2013-01-02 23:04:00,
2013-01-02 17:09:00,16.6,14.4,30.01,West,264,2.0,2.0,91,0.00,,,0.00,VWS V14.01,2013-01-02 23:09:00,
2013-01-02 17:14:00,16.6,14.4,30.00,West,267,1.0,1.0,91,0.00,,,0.00,VWS V14.01,2013-01-02 23:14:00,
2013-01-02 17:20:00,16.5,14.3,30.01,West,260,3.0,3.0,91,0.00,,,0.00,VWS V14.01,2013-01-02 23:20:00,
2013-01-02 17:26:00,16.5,14.3,30.01,West,273,3.0,3.0,91,0.00,,,0.00,VWS V14.01,2013-01-02 23:26:00,
2013-01-02 17:32:00,16.4,14.2,30.01,WSW,249,2.0,3.0,91,0.00,,,0.00,VWS V14.01,2013-01-02 23:32:00,
2013-01-02 17:38:00,16.3,14.1,30.01,WSW,248,2.0,2.0,91,0.00,,,0.00,VWS V14.01,2013-01-02 23:38:00,
2013-01-02 17:43:00,16.3,14.1,30.01,SW,215,0.0,1.0,91,0.00,,,0.00,VWS V14.01,2013-01-02 23:43:00,
2013-01-02 17:49:00,16.3,14.1,30.01,WSW,238,1.0,1.0,91,0.00,,,0.00,VWS V14.01,2013-01-02 23:49:00,
2013-01-02 17:54:00,16.3,14.1,30.01,WSW,238,0.0,1.0,91,0.00,,,0.00,VWS V14.01,2013-01-02 23:54:00,
2013-01-02 18:00:00,16.3,14.1,30.02,WSW,240,1.0,2.0,91,0.00,,,0.00,VWS V14.01,2013-01-03 00:00:00,
2013-01-02 18:06:00,16.2,14.0,30.02,West,274,1.0,1.0,91,0.00,,,0.00,VWS V14.01,2013-01-03 00:06:00,
2013-01-02 18:12:00,16.3,14.1,30.02,WSW,257,0.0,1.0,91,0.00,,,0.00,VWS V14.01,2013-01-03 00:12:00,
2013-01-02 18:18:00,16.3,14.4,30.02,SW,226,0.0,0.0,92,0.00,,,0.00,VWS V14.01,2013-01-03 00:18:00,
2013-01-02 18:23:00,16.3,14.4,30.02,SW,221,2.0,2.0,92,0.00,,,0.00,VWS V14.01,2013-01-03 00:23:00,
2013-01-02 18:28:00,16.3,14.4,30.02,SW,224,1.0,2.0,92,0.00,,,0.00,VWS V14.01,2013-01-03 00:28:00,
2013-01-02 18:33:00,16.4,14.5,30.02,SW,220,0.0,3.0,92,0.00,,,0.00,VWS V14.01,2013-01-03 00:33:00,
2013-01-02 18:40:00,16.4,14.5,30.02,SSW,205,1.0,1.0,92,0.00,,,0.00,VWS V14.01,2013-01-03 00:40:00,
2013-01-02 18:46:00,16.5,14.6,30.03,SSW,211,1.0,2.0,92,0.00,,,0.00,VWS V14.01,2013-01-03 00:46:00,
2013-01-02 18:52:00,16.5,14.6,30.03,West,266,1.0,2.0,92,0.00,,,0.00,VWS V14.01,2013-01-03 00:52:00,
2013-01-02 18:58:00,16.5,14.6,30.03,SW,235,1.0,3.0,92,0.00,,,0.00,VWS V14.01,2013-01-03 00:58:00,
2013-01-02 19:03:00,16.6,14.7,30.03,West,276,1.0,1.0,92,0.00,,,0.00,VWS V14.01,2013-01-03 01:03:00,
2013-01-02 19:08:00,16.7,14.8,30.03,West,263,1.0,2.0,92,0.00,,,0.00,VWS V14.01,2013-01-03 01:08:00,
2013-01-02 19:13:00,16.7,14.8,30.03,SW,223,1.0,2.0,92,0.00,,,0.00,VWS V14.01,2013-01-03 01:13:00,
2013-01-02 19:18:00,16.7,14.8,30.03,SW,229,2.0,2.0,92,0.00,,,0.00,VWS V14.01,2013-01-03 01:18:00,
2013-01-02 19:23:00,16.8,14.9,30.03,SW,224,2.0,3.0,92,0.00,,,0.00,VWS V14.01,2013-01-03 01:23:00,
2013-01-02 19:30:00,16.8,14.9,30.04,West,270,2.0,4.0,92,0.00,,,0.00,VWS V14.01,2013-01-03 01:30:00,
2013-01-02 19:36:00,16.9,15.0,30.04,West,263,2.0,3.0,92,0.00,,,0.00,VWS V14.01,2013-01-03 01:36:00,
2013-01-02 19:42:00,17.0,15.1,30.04,West,260,1.0,3.0,92,0.00,,,0.00,VWS V14.01,2013-01-03 01:42:00,
2013-01-02 19:48:00,17.1,15.2,30.03,SW,228,1.0,2.0,92,0.00,,,0.00,VWS V14.01,2013-01-03 01:48:00,
2013-01-02 19:53:00,17.2,15.3,30.03,West,264,1.0,3.0,92,0.00,,,0.00,VWS V14.01,2013-01-03 01:53:00,
2013-01-02 19:58:00,17.2,15.5,30.04,West,259,1.0,3.0,93,0.00,,,0.00,VWS V14.01,2013-01-03 01:58:00,
2013-01-02 20:03:00,17.3,15.6,30.03,WSW,255,0.0,2.0,93,0.00,,,0.00,VWS V14.01,2013-01-03 02:03:00,
2013-01-02 20:08:00,17.4,15.7,30.03,WSW,253,1.0,2.0,93,0.00,,,0.00,VWS V14.01,2013-01-03 02:08:00,
2013-01-02 20:13:00,17.4,15.7,30.03,West,259,1.0,3.0,93,0.00,,,0.00,VWS V14.01,2013-01-03 02:13:00,
2013-01-02 20:18:00,17.5,15.8,30.03,West,262,1.0,3.0,93,0.00,,,0.00,VWS V14.01,2013-01-03 02:18:00,
2013-01-02 20:23:00,17.6,15.9,30.03,West,267,2.0,2.0,93,0.00,,,0.00,VWS V14.01,2013-01-03 02:23:00,
2013-01-02 20:28:00,17.7,16.0,30.03,West,262,1.0,2.0,93,0.00,,,0.00,VWS V14.01,2013-01-03 02:28:00,
2013-01-02 20:34:00,17.8,16.1,30.03,West,267,2.0,2.0,93,0.00,,,0.00,VWS V14.01,2013-01-03 02:34:00,
2013-01-02 20:40:00,17.9,16.2,30.03,West,262,2.0,2.0,93,0.00,,,0.00,VWS V14.01,2013-01-03 02:40:00,
2013-01-02 20:46:00,18.0,16.3,30.03,WSW,256,2.0,2.0,93,0.00,,,0.00,VWS V14.01,2013-01-03 02:46:00,
2013-01-02 20:52:00,18.1,16.4,30.03,West,273,1.0,2.0,93,0.00,,,0.00,VWS V14.01,2013-01-03 02:52:00,
2013-01-02 20:58:00,18.2,16.5,30.04,West,264,1.0,2.0,93,0.00,,,0.00,VWS V14.01,2013-01-03 02:58:00,
2013-01-02 21:05:00,18.3,16.6,30.04,West,280,1.0,1.0,93,0.00,,,0.00,VWS V14.01,2013-01-03 03:05:00,
2013-01-02 21:11:00,18.5,16.8,30.04,West,260,1.0,1.0,93,0.00,,,0.00,VWS V14.01,2013-01-03 03:11:00,
2013-01-02 21:17:00,18.6,16.9,30.04,West,271,1.0,1.0,93,0.00,,,0.00,VWS V14.01,2013-01-03 03:17:00,
2013-01-02 21:23:00,18.7,17.0,30.04,West,262,0.0,1.0,93,0.00,,,0.00,VWS V14.01,2013-01-03 03:23:00,
2013-01-02 21:28:00,18.8,17.1,30.05,West,259,1.0,1.0,93,0.00,,,0.00,VWS V14.01,2013-01-03 03:28:00,
2013-01-02 21:34:00,18.9,17.2,30.05,West,276,2.0,2.0,93,0.00,,,0.00,VWS V14.01,2013-01-03 03:34:00,
2013-01-02 21:43:00,19.1,17.4,30.05,West,276,0.0,1.0,93,0.00,,,0.00,VWS V14.01,2013-01-03 03:43:00,
2013-01-02 21:49:00,19.2,17.5,30.05,West,268,1.0,2.0,93,0.00,,,0.00,VWS V14.01,2013-01-03 03:49:00,
2013-01-02 21:55:00,19.3,17.6,30.05,West,267,2.0,2.0,93,0.00,,,0.00,VWS V14.01,2013-01-03 03:55:00,
2013-01-02 22:01:00,19.5,17.8,30.05,West,267,3.0,3.0,93,0.00,,,0.00,VWS V14.01,2013-01-03 04:01:00,
2013-01-02 22:08:00,19.6,18.2,30.05,WSW,256,3.0,3.0,94,0.00,,,0.00,VWS V14.01,2013-01-03 04:08:00,
2013-01-02 22:13:00,20.0,18.5,30.06,WNW,283,2.0,4.0,94,0.00,,,0.00,VWS V14.01,2013-01-03 04:13:00,
2013-01-02 22:18:00,20.1,18.6,30.06,West,276,1.0,3.0,94,0.00,,,0.00,VWS V14.01,2013-01-03 04:18:00,
2013-01-02 22:23:00,20.1,18.4,30.06,West,276,2.0,3.0,93,0.00,,,0.00,VWS V14.01,2013-01-03 04:23:00,
2013-01-02 22:28:00,20.2,18.5,30.06,West,269,2.0,3.0,93,0.00,,,0.00,VWS V14.01,2013-01-03 04:28:00,
2013-01-02 22:33:00,20.2,18.5,30.06,West,278,1.0,3.0,93,0.00,,,0.00,VWS V14.01,2013-01-03 04:33:00,
2013-01-02 22:38:00,20.2,18.5,30.07,West,281,1.0,2.0,93,0.00,,,0.00,VWS V14.01,2013-01-03 04:38:00,
2013-01-02 22:43:00,20.3,18.6,30.07,West,273,0.0,2.0,93,0.00,,,0.00,VWS V14.01,2013-01-03 04:43:00,
2013-01-02 22:48:00,20.3,18.6,30.07,WNW,285,1.0,3.0,93,0.00,,,0.00,VWS V14.01,2013-01-03 04:48:00,
2013-01-02 22:53:00,20.4,18.7,30.08,West,280,1.0,5.0,93,0.00,,,0.00,VWS V14.01,2013-01-03 04:53:00,
2013-01-02 22:58:00,20.5,18.8,30.08,West,278,1.0,3.0,93,0.00,,,0.00,VWS V14.01,2013-01-03 04:58:00,
2013-01-02 23:01:00,20.5,18.8,30.08,WNW,293,3.0,3.0,93,0.00,,,0.00,VWS V14.01,2013-01-03 05:01:00,
2013-01-02 23:03:00,20.6,18.9,30.08,West,281,3.0,3.0,93,0.00,,,0.00,VWS V14.01,2013-01-03 05:03:00,
2013-01-02 23:05:00,20.6,18.9,30.08,WNW,283,2.0,3.0,93,0.00,,,0.00,VWS V14.01,2013-01-03 05:05:00,
2013-01-02 23:07:00,20.6,18.9,30.08,West,274,2.0,3.0,93,0.00,,,0.00,VWS V14.01,2013-01-03 05:07:00,
2013-01-02 23:14:00,20.7,19.0,30.08,West,270,2.0,4.0,93,0.00,,,0.00,VWS V14.01,2013-01-03 05:14:00,
2013-01-02 23:21:00,20.9,19.0,30.08,West,267,3.0,3.0,92,0.00,,,0.00,VWS V14.01,2013-01-03 05:21:00,
2013-01-02 23:27:00,20.8,18.9,30.08,WNW,285,2.0,3.0,92,0.00,,,0.00,VWS V14.01,2013-01-03 05:27:00,
2013-01-02 23:33:00,20.9,19.0,30.08,West,276,2.0,6.0,92,0.00,,,0.00,VWS V14.01,2013-01-03 05:33:00,
2013-01-02 23:38:00,20.9,18.7,30.08,WNW,290,5.0,8.0,91,0.00,,,0.00,VWS V14.01,2013-01-03 05:38:00,
2013-01-02 23:43:00,20.8,18.3,30.08,WNW,283,2.0,5.0,90,0.00,,,0.00,VWS V14.01,2013-01-03 05:43:00,
2013-01-02 23:48:00,20.7,18.2,30.08,WNW,294,1.0,5.0,90,0.00,,,0.00,VWS V14.01,2013-01-03 05:48:00,
2013-01-02 23:53:00,20.5,17.8,30.08,WNW,283,3.0,8.0,89,0.00,,,0.00,VWS V14.01,2013-01-03 05:53:00,
2013-01-02 23:59:00,20.4,17.7,30.08,West,281,2.0,4.0,89,0.00,,,0.00,VWS V14.01,2013-01-03 05:59:00,